createdAt,value
2019-03-12T00:01:58.127Z,1.75
2019-03-12T00:04:28.744Z,1.50
2019-03-12T00:06:58.726Z,1.87
2019-03-12T00:09:28.837Z,2.15
2019-03-12T00:11:59.187Z,2.67
2019-03-12T00:14:29.166Z,2.10
2019-03-12T00:16:59.235Z,2.22
2019-03-12T00:19:30.577Z,1.72
2019-03-12T00:22:00.773Z,1.70
2019-03-12T00:24:31.181Z,2.17
2019-03-12T00:27:01.043Z,1.37
2019-03-12T00:29:31.674Z,1.70
2019-03-12T00:32:02.227Z,2.08
2019-03-12T00:34:32.489Z,1.70
2019-03-12T00:37:02.669Z,2.00
2019-03-12T00:39:32.722Z,1.75
2019-03-12T00:42:02.833Z,1.80
2019-03-12T00:44:33.023Z,2.00
2019-03-12T00:47:03.155Z,1.90
2019-03-12T00:49:33.629Z,2.30
2019-03-12T00:52:03.809Z,2.25
2019-03-12T00:54:36.180Z,2.10
2019-03-12T00:57:06.369Z,1.67
2019-03-12T00:59:36.305Z,2.30
2019-03-12T01:02:06.440Z,1.75
2019-03-12T01:04:36.420Z,2.22
2019-03-12T01:07:06.209Z,1.98
2019-03-12T01:09:36.044Z,1.87
2019-03-12T01:12:06.394Z,3.58
2019-03-12T01:14:36.332Z,1.70
2019-03-12T01:17:06.526Z,2.08
2019-03-12T01:19:36.480Z,1.92
2019-03-12T01:22:06.847Z,1.10
2019-03-12T01:24:37.061Z,1.60
2019-03-12T01:27:07.161Z,1.45
2019-03-12T01:29:37.323Z,1.67
2019-03-12T01:32:07.305Z,1.45
2019-03-12T01:34:37.556Z,1.30
2019-03-12T01:37:07.581Z,0.80
2019-03-12T01:39:37.882Z,1.55
2019-03-12T01:42:08.070Z,1.42
2019-03-12T01:44:38.387Z,1.52
2019-03-12T01:47:08.274Z,1.27
2019-03-12T01:49:38.211Z,1.80
2019-03-12T01:52:08.388Z,1.70
2019-03-12T01:54:38.537Z,1.50
2019-03-12T01:57:08.544Z,1.00
2019-03-12T01:59:38.517Z,1.62
2019-03-12T02:02:08.848Z,1.57
2019-03-12T02:04:38.816Z,1.60
2019-03-12T02:07:08.695Z,1.25
2019-03-12T02:09:38.571Z,1.42
2019-03-12T02:12:08.594Z,1.77
2019-03-12T02:14:38.763Z,1.30
2019-03-12T02:17:09.325Z,2.65
2019-03-12T02:19:39.464Z,1.50
2019-03-12T02:22:10.686Z,1.30
2019-03-12T02:24:52.012Z,1.10
2019-03-12T02:27:12.834Z,1.80
2019-03-12T02:29:43.670Z,1.32
2019-03-12T02:32:13.946Z,0.80
2019-03-12T02:34:44.407Z,1.10
2019-03-12T02:37:14.822Z,1.10
2019-03-12T02:39:44.981Z,1.20
2019-03-12T02:42:14.934Z,1.30
2019-03-12T02:44:44.844Z,2.17
2019-03-12T02:47:14.818Z,1.57
2019-03-12T02:49:44.839Z,1.25
2019-03-12T02:52:15.120Z,2.08
2019-03-12T02:54:45.322Z,1.20
2019-03-12T02:57:15.384Z,1.60
2019-03-12T02:59:46.103Z,1.72
2019-03-12T03:02:16.275Z,1.50
2019-03-12T03:04:46.643Z,1.32
2019-03-12T03:07:42.645Z,1.40
2019-03-12T03:10:14.550Z,1.07
2019-03-12T03:12:45.647Z,1.90
2019-03-12T03:15:17.690Z,1.60
2019-03-12T03:17:47.919Z,1.82
2019-03-12T03:20:18.039Z,1.62
2019-03-12T03:22:48.509Z,1.70
2019-03-12T03:25:18.556Z,1.90
2019-03-12T03:27:48.902Z,1.45
2019-03-12T03:30:20.850Z,2.05
2019-03-12T03:32:50.932Z,2.15
2019-03-12T03:35:21.172Z,1.10
2019-03-12T03:37:51.356Z,1.55
2019-03-12T03:40:21.609Z,2.42
2019-03-12T03:42:52.831Z,1.12
2019-03-12T03:45:22.860Z,1.50
2019-03-12T03:47:53.192Z,1.60
2019-03-12T03:50:24.748Z,1.95
2019-03-12T03:52:55.111Z,2.12
2019-03-12T03:55:25.357Z,2.62
2019-03-12T03:57:55.569Z,1.90
2019-03-12T04:00:25.964Z,2.20
2019-03-12T04:02:55.937Z,2.02
2019-03-12T04:05:26.338Z,1.60
2019-03-12T04:07:56.594Z,2.08
2019-03-12T04:10:26.538Z,1.45
2019-03-12T04:12:57.150Z,1.67
2019-03-12T04:15:27.196Z,2.52
2019-03-12T04:17:58.376Z,1.65
2019-03-12T04:20:28.752Z,1.02
2019-03-12T04:22:58.886Z,2.20
2019-03-12T04:25:29.403Z,1.55
2019-03-12T04:27:59.629Z,2.20
2019-03-12T04:30:30.016Z,2.05
2019-03-12T04:33:00.757Z,1.70
2019-03-12T04:35:31.381Z,1.90
2019-03-12T04:38:01.601Z,2.02
2019-03-12T04:40:31.842Z,2.20
2019-03-12T04:43:02.271Z,2.92
2019-03-12T04:45:32.557Z,1.85
2019-03-12T04:48:03.032Z,2.02
2019-03-12T04:50:33.674Z,2.08
2019-03-12T04:53:05.425Z,2.42
2019-03-12T04:55:36.274Z,1.60
2019-03-12T04:58:06.887Z,1.82
2019-03-12T05:00:37.225Z,2.00
2019-03-12T05:03:08.781Z,1.70
2019-03-12T05:05:39.550Z,1.20
2019-03-12T05:08:10.125Z,1.87
2019-03-12T05:10:40.771Z,1.72
2019-03-12T05:13:12.063Z,1.92
2019-03-12T05:15:42.488Z,2.00
2019-03-12T05:18:13.871Z,2.95
2019-03-12T05:20:44.419Z,1.85
2019-03-12T05:23:14.994Z,0.68
2019-03-12T05:25:46.040Z,1.70
2019-03-12T05:28:16.984Z,2.05
2019-03-12T05:30:47.587Z,2.02
2019-03-12T05:33:18.369Z,2.30
2019-03-12T05:35:48.865Z,1.50
2019-03-12T05:38:21.510Z,3.12
2019-03-12T05:40:52.039Z,2.45
2019-03-12T05:43:22.856Z,2.33
2019-03-12T05:45:53.374Z,2.00
2019-03-12T05:48:25.237Z,1.95
2019-03-12T05:50:58.634Z,2.70
2019-03-12T05:53:52.713Z,1.90
2019-03-12T05:56:24.260Z,1.90
2019-03-12T05:58:56.526Z,3.17
2019-03-12T06:01:30.909Z,3.37
2019-03-12T06:04:06.649Z,2.27
2019-03-12T06:06:40.550Z,2.02
2019-03-12T06:09:11.673Z,2.45
2019-03-12T06:11:52.671Z,2.52
2019-03-12T06:14:25.443Z,2.52
2019-03-12T06:16:55.995Z,2.92
2019-03-12T06:19:28.113Z,3.60
2019-03-12T06:21:58.694Z,3.25
2019-03-12T06:24:34.256Z,2.22
2019-03-12T06:27:06.314Z,1.85
2019-03-12T06:29:39.882Z,1.12
2019-03-12T06:32:40.957Z,2.37
2019-03-12T06:35:22.352Z,2.72
2019-03-12T06:38:10.787Z,3.98
2019-03-12T06:40:59.899Z,2.30
2019-03-12T06:43:51.201Z,1.80
2019-03-12T06:46:46.077Z,2.58
2019-03-12T06:49:39.684Z,2.37
2019-03-12T06:52:46.757Z,2.40
2019-03-12T06:55:41.275Z,1.90
2019-03-12T06:58:28.491Z,1.35
2019-03-12T07:01:26.237Z,2.30
2019-03-12T07:04:38.953Z,2.10
2019-03-12T07:07:20.718Z,2.30
2019-03-12T07:10:20.967Z,3.02
2019-03-12T07:13:11.710Z,2.58
2019-03-12T07:15:49.072Z,2.90
2019-03-12T07:18:39.131Z,2.37
2019-03-12T07:21:24.730Z,2.60
2019-03-12T07:24:29.248Z,2.35
2019-03-12T07:27:34.471Z,2.30
2019-03-12T07:30:17.498Z,2.62
2019-03-12T07:33:16.585Z,1.52
2019-03-12T07:36:06.149Z,1.67
2019-03-12T07:38:54.107Z,2.40
2019-03-12T07:41:42.641Z,2.22
2019-03-12T07:44:44.005Z,2.00
2019-03-12T07:47:35.587Z,1.67
2019-03-12T07:50:35.150Z,2.08
2019-03-12T07:53:24.058Z,3.40
2019-03-12T07:56:09.205Z,2.20
2019-03-12T07:58:57.257Z,4.25
2019-03-12T08:02:03.655Z,2.90
2019-03-12T08:04:52.260Z,2.80
2019-03-12T08:07:57.117Z,2.47
2019-03-12T08:10:50.025Z,3.27
2019-03-12T08:13:41.086Z,2.72
2019-03-12T08:16:32.548Z,4.22
2019-03-12T08:19:24.049Z,2.00
2019-03-12T08:22:18.848Z,2.12
2019-03-12T08:24:55.961Z,3.47
2019-03-12T08:27:45.956Z,1.35
2019-03-12T08:31:05.258Z,3.45
2019-03-12T08:33:55.388Z,1.32
2019-03-12T08:36:57.744Z,2.00
2019-03-12T08:39:51.710Z,2.00
2019-03-12T08:42:54.813Z,2.00
2019-03-12T08:45:38.987Z,1.32
2019-03-12T08:48:45.952Z,2.55
2019-03-12T08:51:51.115Z,1.50
2019-03-12T08:54:30.726Z,1.65
2019-03-12T08:57:06.716Z,2.47
2019-03-12T08:59:56.904Z,2.00
2019-03-12T09:02:50.278Z,1.95
2019-03-12T09:05:47.585Z,3.20
2019-03-12T09:08:40.030Z,3.42
2019-03-12T09:11:34.002Z,2.20
2019-03-12T09:14:26.592Z,2.77
2019-03-12T09:17:18.333Z,2.40
2019-03-12T09:20:12.111Z,2.10
2019-03-12T09:22:51.991Z,3.10
2019-03-12T09:25:40.035Z,2.47
2019-03-12T09:28:19.868Z,7.20
2019-03-12T09:31:15.404Z,3.20
2019-03-12T09:34:19.588Z,3.52
2019-03-12T09:37:12.134Z,2.55
2019-03-12T09:40:01.309Z,2.33
2019-03-12T09:42:53.783Z,1.70
2019-03-12T09:45:49.272Z,1.52
2019-03-12T09:48:51.023Z,1.30
2019-03-12T09:51:25.592Z,1.80
2019-03-12T09:54:15.651Z,4.15
2019-03-12T09:56:53.634Z,1.52
2019-03-12T09:59:46.912Z,3.80
2019-03-12T10:02:54.749Z,1.72
2019-03-12T10:05:50.334Z,2.10
2019-03-12T10:08:42.401Z,1.60
2019-03-12T10:11:34.978Z,1.80
2019-03-12T10:14:30.432Z,3.27
2019-03-12T10:17:19.546Z,2.10
2019-03-12T10:20:03.260Z,1.85
2019-03-12T10:22:42.504Z,1.90
2019-03-12T10:25:30.711Z,1.77
2019-03-12T10:28:21.119Z,1.30
2019-03-12T10:31:23.012Z,1.47
2019-03-12T10:34:11.482Z,2.00
2019-03-12T10:37:12.325Z,1.50
2019-03-12T10:40:24.314Z,1.40
2019-03-12T10:43:00.081Z,1.60
2019-03-12T10:45:55.290Z,2.70
2019-03-12T10:50:55.854Z,1.65
2019-03-12T10:53:27.400Z,2.52
2019-03-12T10:56:02.317Z,1.52
2019-03-12T10:58:33.109Z,1.87
2019-03-12T11:01:04.017Z,2.67
2019-03-12T11:03:34.210Z,1.60
2019-03-12T11:06:05.204Z,3.17
2019-03-12T11:08:35.384Z,1.98
2019-03-12T11:11:06.368Z,1.75
2019-03-12T11:13:37.016Z,2.10
2019-03-12T11:16:08.711Z,1.90
2019-03-12T11:18:39.958Z,2.95
2019-03-12T11:21:10.320Z,3.10
2019-03-12T11:24:05.498Z,2.15
2019-03-12T11:26:42.591Z,1.90
2019-03-12T11:29:41.505Z,2.10
2019-03-12T11:32:15.812Z,1.47
2019-03-12T11:37:27.321Z,1.82
2019-03-12T11:39:58.445Z,2.27
2019-03-12T11:42:29.504Z,2.95
2019-03-12T11:45:00.044Z,2.47
2019-03-12T11:47:30.864Z,2.33
2019-03-12T11:50:01.871Z,3.35
2019-03-12T11:52:33.567Z,2.60
2019-03-12T11:55:04.565Z,1.80
2019-03-12T11:57:35.228Z,2.72
2019-03-12T12:00:08.805Z,2.85
2019-03-12T12:02:39.081Z,1.95
2019-03-12T12:05:10.020Z,1.95
2019-03-12T12:07:40.281Z,2.20
2019-03-12T12:10:11.589Z,3.47
2019-03-12T12:12:41.639Z,3.50
2019-03-12T12:15:11.671Z,3.20
2019-03-12T12:17:41.964Z,4.12
2019-03-12T12:20:12.176Z,2.85
2019-03-12T12:22:42.033Z,1.87
2019-03-12T12:25:13.249Z,2.55
2019-03-12T12:27:43.597Z,2.40
2019-03-12T12:30:16.742Z,3.52
2019-03-12T12:32:47.423Z,2.20
2019-03-12T12:35:17.820Z,0.60
2019-03-12T12:37:47.800Z,2.40
2019-03-12T12:40:18.245Z,2.05
2019-03-12T12:42:48.951Z,2.90
2019-03-12T12:45:20.421Z,2.95
2019-03-12T12:47:50.186Z,2.25
2019-03-12T12:50:20.646Z,2.30
2019-03-12T12:52:51.433Z,2.10
2019-03-12T12:55:22.144Z,2.30
2019-03-12T12:57:52.950Z,2.80
2019-03-12T13:00:23.663Z,4.75
2019-03-12T13:02:53.714Z,2.92
2019-03-12T13:05:24.062Z,4.80
2019-03-12T13:07:54.531Z,2.27
2019-03-12T13:10:24.763Z,2.40
2019-03-12T13:12:55.099Z,4.17
2019-03-12T13:15:25.751Z,5.15
2019-03-12T13:17:57.718Z,2.12
2019-03-12T13:20:33.371Z,2.12
2019-03-12T13:23:04.650Z,2.20
2019-03-12T13:25:35.676Z,2.60
2019-03-12T13:28:05.815Z,2.27
2019-03-12T13:30:36.310Z,2.85
2019-03-12T13:33:07.091Z,2.00
2019-03-12T13:35:37.764Z,3.02
2019-03-12T13:38:11.313Z,2.83
2019-03-12T13:40:42.061Z,3.30
2019-03-12T13:43:13.101Z,2.45
2019-03-12T13:45:43.548Z,1.90
2019-03-12T13:48:13.923Z,2.42
2019-03-12T13:50:44.631Z,1.75
2019-03-12T13:53:15.048Z,3.27
2019-03-12T13:55:45.438Z,3.90
2019-03-12T13:58:17.068Z,3.27
2019-03-12T14:00:54.690Z,4.97
2019-03-12T14:03:26.308Z,2.87
2019-03-12T14:05:56.744Z,4.50
2019-03-12T14:08:26.947Z,3.10
2019-03-12T14:10:56.952Z,3.90
2019-03-12T14:13:27.439Z,3.98
2019-03-12T14:15:57.628Z,3.83
2019-03-12T14:18:28.161Z,3.37
2019-03-12T14:21:04.364Z,3.00
2019-03-12T14:23:40.593Z,4.65
2019-03-12T14:26:13.109Z,4.08
2019-03-12T14:28:43.519Z,3.90
2019-03-12T14:31:13.688Z,3.25
2019-03-12T14:33:44.125Z,2.90
2019-03-12T14:36:15.003Z,2.77
2019-03-12T14:38:45.182Z,3.90
2019-03-12T14:41:15.528Z,3.15
2019-03-12T14:43:45.729Z,2.02
2019-03-12T14:46:15.794Z,3.70
2019-03-12T14:48:48.496Z,2.90
2019-03-12T14:51:54.829Z,3.60
2019-03-12T14:54:25.607Z,3.12
2019-03-12T14:56:55.815Z,2.33
2019-03-12T14:59:26.320Z,17.98
2019-03-12T15:01:57.278Z,4.10
2019-03-12T15:04:27.709Z,1.30
2019-03-12T15:06:58.073Z,2.98
2019-03-12T15:09:28.035Z,4.05
2019-03-12T15:11:58.518Z,3.25
2019-03-12T15:14:29.254Z,1.85
2019-03-12T15:16:59.870Z,3.95
2019-03-12T15:19:29.812Z,2.80
2019-03-12T15:22:00.976Z,2.55
2019-03-12T15:24:31.074Z,4.65
2019-03-12T15:27:02.351Z,4.20
2019-03-12T15:29:33.217Z,2.27
2019-03-12T15:32:04.762Z,4.85
2019-03-12T15:34:35.415Z,4.90
2019-03-12T15:37:05.541Z,4.75
2019-03-12T15:39:35.682Z,5.10
2019-03-12T15:42:06.145Z,4.62
2019-03-12T15:44:36.596Z,6.00
2019-03-12T15:47:08.787Z,5.40
2019-03-12T15:49:42.837Z,6.17
2019-03-12T15:52:11.358Z,6.00
2019-03-12T15:54:41.413Z,4.00
2019-03-12T15:57:11.358Z,4.67
2019-03-12T15:59:41.480Z,4.40
2019-03-12T16:02:11.705Z,3.92
2019-03-12T16:04:42.652Z,5.22
2019-03-12T16:07:13.892Z,4.55
2019-03-12T16:09:44.237Z,3.65
2019-03-12T16:12:14.777Z,4.72
2019-03-12T16:14:45.138Z,1.62
2019-03-12T16:17:15.557Z,5.28
2019-03-12T16:19:46.194Z,4.25
2019-03-12T16:22:16.291Z,4.45
2019-03-12T16:24:46.619Z,5.85
2019-03-12T16:27:16.618Z,6.70
2019-03-12T16:29:48.455Z,5.25
2019-03-12T16:32:19.221Z,5.25
2019-03-12T16:34:50.961Z,5.95
2019-03-12T16:37:25.830Z,4.53
2019-03-12T16:39:57.405Z,4.95
2019-03-12T16:42:34.907Z,3.60
2019-03-12T16:45:06.210Z,5.05
2019-03-12T16:47:39.311Z,4.75
2019-03-12T16:50:09.544Z,4.50
2019-03-12T16:52:43.553Z,3.83
2019-03-12T16:55:24.590Z,4.45
2019-03-12T16:57:58.462Z,4.30
2019-03-12T17:00:33.408Z,4.85
2019-03-12T17:03:03.804Z,4.37
2019-03-12T17:05:34.637Z,5.47
2019-03-12T17:08:12.703Z,4.47
2019-03-12T17:10:54.817Z,5.53
2019-03-12T17:13:19.738Z,4.37
2019-03-12T17:15:54.426Z,5.60
2019-03-12T17:18:24.992Z,4.87
2019-03-12T17:20:55.981Z,4.67
2019-03-12T17:23:26.504Z,5.15
2019-03-12T17:25:56.771Z,4.50
2019-03-12T17:28:26.915Z,3.87
2019-03-12T17:30:57.406Z,4.97
2019-03-12T17:33:28.078Z,5.30
2019-03-12T17:35:58.644Z,3.98
2019-03-12T17:38:36.609Z,4.10
2019-03-12T17:41:00.750Z,4.58
2019-03-12T17:43:31.597Z,3.62
2019-03-12T17:46:01.736Z,5.03
2019-03-12T17:48:32.134Z,4.30
2019-03-12T17:51:02.042Z,3.62
2019-03-12T17:53:32.828Z,5.50
2019-03-12T17:56:05.450Z,3.90
2019-03-12T17:58:37.067Z,3.60
2019-03-12T18:01:07.364Z,4.00
2019-03-12T18:03:37.211Z,3.77
2019-03-12T18:06:07.227Z,4.05
2019-03-12T18:08:37.393Z,3.55
2019-03-12T18:11:07.746Z,3.70
2019-03-12T18:13:37.883Z,3.60
2019-03-12T18:16:08.146Z,3.15
2019-03-12T18:18:41.786Z,4.33
2019-03-12T18:21:13.770Z,5.00
2019-03-12T18:23:44.526Z,4.12
2019-03-12T18:26:14.970Z,5.25
2019-03-12T18:28:44.977Z,4.97
2019-03-12T18:31:15.061Z,4.65
2019-03-12T18:33:45.504Z,4.90
2019-03-12T18:36:15.768Z,4.78
2019-03-12T18:38:46.030Z,5.85
2019-03-12T18:41:16.138Z,5.00
2019-03-12T18:43:46.246Z,6.05
2019-03-12T18:46:16.998Z,6.10
2019-03-12T18:48:47.465Z,4.70
2019-03-12T18:51:17.596Z,5.12
2019-03-12T18:53:48.423Z,4.37
2019-03-12T18:56:18.582Z,4.00
2019-03-12T18:58:48.847Z,4.15
2019-03-12T19:01:18.856Z,5.03
2019-03-12T19:03:49.866Z,3.95
2019-03-12T19:06:20.189Z,4.15
2019-03-12T19:08:50.733Z,4.78
2019-03-12T19:11:20.914Z,3.95
2019-03-12T19:13:51.174Z,3.92
2019-03-12T19:16:21.943Z,3.50
2019-03-12T19:18:52.702Z,4.05
2019-03-12T19:21:23.121Z,6.17
2019-03-12T19:23:53.377Z,4.10
2019-03-12T19:26:23.606Z,4.83
2019-03-12T19:28:57.008Z,5.03
2019-03-12T19:31:35.562Z,3.58
2019-03-12T19:34:12.458Z,4.00
2019-03-12T19:36:42.824Z,3.40
2019-03-12T19:39:15.549Z,3.70
2019-03-12T19:41:45.806Z,3.85
2019-03-12T19:44:16.555Z,3.42
2019-03-12T19:46:48.122Z,4.17
2019-03-12T19:49:18.261Z,4.00
2019-03-12T19:51:49.431Z,3.92
2019-03-12T19:54:20.550Z,3.65
2019-03-12T19:56:50.680Z,3.10
2019-03-12T19:59:20.752Z,3.90
2019-03-12T20:01:53.230Z,3.08
2019-03-12T20:04:23.351Z,3.62
2019-03-12T20:06:53.262Z,4.45
2019-03-12T20:09:44.524Z,3.35
2019-03-12T20:12:44.088Z,3.77
2019-03-12T20:15:45.206Z,4.55
2019-03-12T20:18:49.869Z,4.80
2019-03-12T20:21:54.795Z,4.65
2019-03-12T20:25:03.797Z,5.03
2019-03-12T20:28:44.063Z,6.08
2019-03-12T20:31:54.833Z,4.03
2019-03-12T20:35:09.109Z,4.40
2019-03-12T20:38:14.887Z,4.62
2019-03-12T20:41:21.922Z,5.03
2019-03-12T20:44:32.739Z,4.80
2019-03-12T20:47:59.201Z,4.50
2019-03-12T20:51:05.221Z,4.62
2019-03-12T20:54:11.629Z,4.42
2019-03-12T20:57:22.311Z,3.85
2019-03-12T21:00:35.579Z,4.25
2019-03-12T21:03:57.663Z,8.20
2019-03-12T21:07:13.832Z,4.67
2019-03-12T21:10:33.503Z,4.45
2019-03-12T21:13:49.808Z,4.58
2019-03-12T21:17:06.633Z,5.00
2019-03-12T21:20:14.058Z,6.92
2019-03-12T21:23:30.764Z,4.95
2019-03-12T21:26:42.048Z,3.85
2019-03-12T21:29:50.943Z,4.80
2019-03-12T21:32:21.121Z,4.75
2019-03-12T21:34:51.161Z,4.70
2019-03-12T21:37:21.337Z,4.30
2019-03-12T21:39:55.805Z,4.90
2019-03-12T21:42:25.379Z,5.08
2019-03-12T21:44:55.396Z,5.03
2019-03-12T21:47:26.530Z,4.70
2019-03-12T21:49:56.435Z,4.05
2019-03-12T21:52:26.339Z,5.12
2019-03-12T21:54:56.274Z,5.47
2019-03-12T21:57:26.329Z,5.00
2019-03-12T21:59:56.929Z,5.70
2019-03-12T22:02:27.047Z,5.00
2019-03-12T22:04:57.396Z,5.08
2019-03-12T22:07:27.305Z,4.90
2019-03-12T22:09:57.061Z,4.87
2019-03-12T22:12:27.037Z,5.08
2019-03-12T22:14:57.428Z,4.90
2019-03-12T22:17:27.400Z,5.05
2019-03-12T22:19:57.410Z,4.90
2019-03-12T22:22:32.032Z,5.67
2019-03-12T22:25:01.583Z,5.60
2019-03-12T22:27:31.974Z,5.10
2019-03-12T22:30:01.730Z,5.70
2019-03-12T22:32:31.811Z,5.55
2019-03-12T22:35:01.974Z,4.87
2019-03-12T22:37:32.089Z,4.90
2019-03-12T22:40:02.079Z,5.12
2019-03-12T22:42:32.653Z,4.83
2019-03-12T22:45:02.464Z,5.42
2019-03-12T22:47:33.140Z,5.30
2019-03-12T22:50:02.970Z,5.47
2019-03-12T22:52:33.193Z,6.50
2019-03-12T22:55:04.134Z,5.60
2019-03-12T22:57:34.936Z,5.35
2019-03-12T23:00:05.691Z,5.90
2019-03-12T23:02:35.656Z,5.60
2019-03-12T23:05:05.796Z,5.22
2019-03-12T23:07:35.762Z,6.20
2019-03-12T23:10:06.040Z,6.20
2019-03-12T23:12:35.851Z,5.50
2019-03-12T23:15:07.003Z,5.75
2019-03-12T23:17:37.108Z,4.78
2019-03-12T23:20:09.006Z,4.05
2019-03-12T23:22:38.918Z,5.08
2019-03-12T23:25:09.839Z,4.78
2019-03-12T23:27:40.308Z,5.20
2019-03-12T23:30:12.134Z,5.30
2019-03-12T23:32:42.257Z,4.45
2019-03-12T23:35:12.898Z,5.25
2019-03-12T23:37:43.262Z,4.15
2019-03-12T23:40:13.363Z,4.25
2019-03-12T23:42:43.318Z,4.62
2019-03-12T23:45:13.770Z,4.15
2019-03-12T23:47:43.757Z,4.95
2019-03-12T23:50:13.788Z,4.15
2019-03-12T23:52:44.115Z,4.80
2019-03-12T23:55:14.814Z,4.90
2019-03-12T23:57:44.750Z,5.28
